createdAt,value
2019-03-16T04:24:53.810Z,99.90
2019-03-16T04:32:19.778Z,99.90
2019-03-16T04:35:39.744Z,99.90
2019-03-16T04:38:29.785Z,99.90
2019-03-16T04:53:40.269Z,99.90
2019-03-16T04:56:20.751Z,99.90
2019-03-16T04:59:00.523Z,99.90
2019-03-16T05:01:39.323Z,99.90
2019-03-16T05:04:18.525Z,99.90
2019-03-16T05:06:57.627Z,99.90
2019-03-16T05:09:36.227Z,99.90
2019-03-16T05:12:14.383Z,99.90
2019-03-16T05:14:52.542Z,99.90
2019-03-16T05:17:31.085Z,99.90
2019-03-16T05:20:12.147Z,99.90
2019-03-16T05:22:51.715Z,99.90
2019-03-16T05:25:36.064Z,99.90
2019-03-16T05:28:17.682Z,99.90
2019-03-16T05:30:57.307Z,99.90
2019-03-16T05:33:37.306Z,99.90
2019-03-16T05:36:15.552Z,99.90
2019-03-16T05:38:54.023Z,99.90
2019-03-16T05:41:32.211Z,99.90
2019-03-16T05:44:09.911Z,99.90
2019-03-16T05:46:48.942Z,99.90
2019-03-16T05:49:27.344Z,99.90
2019-03-16T05:52:06.483Z,99.90
2019-03-16T05:54:44.747Z,99.90
2019-03-16T05:57:27.846Z,99.90
2019-03-16T06:00:09.779Z,99.90
2019-03-16T06:02:51.453Z,99.50
2019-03-16T06:05:29.525Z,99.50
2019-03-16T06:08:09.111Z,99.90
2019-03-16T06:10:46.831Z,99.90
2019-03-16T06:13:26.262Z,99.90
2019-03-16T06:16:03.910Z,99.60
2019-03-16T06:18:43.229Z,99.70
2019-03-16T06:21:21.268Z,99.90
2019-03-16T06:24:03.521Z,99.80
2019-03-16T06:26:41.462Z,99.90
2019-03-16T06:29:19.864Z,99.20
2019-03-16T06:31:59.258Z,99.80
2019-03-16T06:34:37.640Z,99.90
2019-03-16T06:37:18.149Z,99.90
2019-03-16T06:39:56.747Z,99.80
2019-03-16T06:42:41.258Z,99.70
2019-03-16T06:45:19.725Z,99.50
2019-03-16T06:47:57.664Z,99.50
2019-03-16T06:50:36.789Z,99.40
2019-03-16T06:53:19.634Z,99.40
2019-03-16T06:55:57.421Z,99.20
2019-03-16T06:58:36.069Z,98.60
2019-03-16T07:01:14.244Z,99.00
2019-03-16T07:03:53.348Z,98.30
2019-03-16T07:06:32.371Z,98.50
2019-03-16T07:09:12.183Z,98.70
2019-03-16T07:11:50.854Z,98.00
2019-03-16T07:14:31.983Z,98.00
2019-03-16T07:17:10.353Z,97.90
2019-03-16T07:19:48.210Z,97.30
2019-03-16T07:22:27.579Z,96.80
2019-03-16T07:25:10.226Z,97.30
2019-03-16T07:27:49.714Z,96.70
2019-03-16T07:30:37.164Z,96.60
2019-03-16T07:33:15.812Z,96.50
2019-03-16T07:35:55.575Z,96.90
2019-03-16T07:38:34.569Z,96.70
2019-03-16T07:41:12.353Z,96.90
2019-03-16T07:43:51.806Z,97.20
2019-03-16T07:46:29.214Z,96.70
2019-03-16T07:49:09.163Z,96.30
2019-03-16T07:51:48.586Z,96.70
2019-03-16T07:54:27.592Z,96.80
2019-03-16T07:57:06.001Z,96.70
2019-03-16T07:59:44.820Z,96.90
2019-03-16T08:02:22.722Z,97.00
2019-03-16T08:05:01.401Z,97.40
2019-03-16T08:07:42.410Z,97.30
2019-03-16T08:10:20.764Z,97.70
2019-03-16T08:12:58.486Z,97.50
2019-03-16T08:15:37.694Z,97.70
2019-03-16T08:18:15.799Z,97.80
2019-03-16T08:20:55.298Z,97.70
2019-03-16T08:23:33.364Z,97.80
2019-03-16T08:26:12.647Z,97.50
2019-03-16T08:28:51.780Z,97.10
2019-03-16T08:31:30.256Z,97.20
2019-03-16T08:34:10.023Z,97.00
2019-03-16T08:36:52.364Z,97.30
2019-03-16T08:39:32.806Z,96.50
2019-03-16T08:42:12.445Z,96.90
2019-03-16T08:44:50.596Z,96.70
2019-03-16T08:47:31.437Z,96.70
2019-03-16T08:50:09.553Z,96.70
2019-03-16T08:52:49.056Z,96.50
2019-03-16T08:55:27.409Z,96.50
2019-03-16T08:58:07.540Z,96.20
2019-03-16T09:00:45.942Z,96.40
2019-03-16T09:03:25.522Z,96.50
2019-03-16T09:06:04.234Z,96.50
2019-03-16T09:08:43.198Z,96.60
2019-03-16T09:11:22.198Z,96.30
2019-03-16T09:14:00.552Z,96.90
2019-03-16T09:16:38.231Z,96.40
2019-03-16T09:19:17.679Z,95.80
2019-03-16T09:21:56.094Z,96.20
2019-03-16T09:24:35.947Z,96.30
2019-03-16T09:27:13.921Z,96.70
2019-03-16T09:29:53.190Z,96.40
2019-03-16T09:32:30.888Z,95.80
2019-03-16T09:35:11.708Z,95.90
2019-03-16T09:37:49.548Z,96.10
2019-03-16T09:40:28.543Z,95.60
2019-03-16T09:43:07.276Z,95.10
2019-03-16T09:45:47.877Z,95.20
2019-03-16T09:48:25.890Z,95.90
2019-03-16T09:51:05.624Z,96.20
2019-03-16T09:53:44.262Z,96.10
2019-03-16T09:56:24.159Z,96.20
2019-03-16T09:59:03.037Z,96.40
2019-03-16T10:01:42.180Z,96.80
2019-03-16T10:04:20.875Z,96.70
2019-03-16T10:07:02.034Z,96.80
2019-03-16T10:09:39.904Z,97.10
2019-03-16T10:12:18.497Z,97.20
2019-03-16T10:14:57.047Z,97.00
2019-03-16T10:17:34.756Z,97.10
2019-03-16T10:20:12.862Z,97.30
2019-03-16T10:22:53.808Z,97.50
2019-03-16T10:25:35.108Z,97.50
2019-03-16T10:28:12.698Z,97.40
2019-03-16T10:30:50.765Z,97.40
2019-03-16T10:33:29.307Z,97.70
2019-03-16T10:36:07.390Z,97.80
2019-03-16T10:38:46.888Z,97.80
2019-03-16T10:41:24.914Z,98.00
2019-03-16T10:44:05.020Z,97.90
2019-03-16T10:46:46.769Z,97.90
2019-03-16T10:49:27.777Z,97.80
2019-03-16T10:52:05.726Z,97.40
2019-03-16T10:54:48.138Z,97.20
2019-03-16T10:57:26.782Z,97.60
2019-03-16T11:00:08.312Z,97.90
2019-03-16T11:02:47.095Z,97.80
2019-03-16T11:05:25.545Z,98.10
2019-03-16T11:08:03.679Z,97.90
2019-03-16T11:10:45.394Z,98.40
2019-03-16T11:13:26.735Z,98.40
2019-03-16T11:16:06.737Z,98.50
2019-03-16T11:18:48.126Z,98.30
2019-03-16T11:21:28.236Z,98.40
2019-03-16T11:24:13.064Z,98.60
2019-03-16T11:26:53.635Z,98.60
2019-03-16T11:29:35.611Z,98.40
2019-03-16T11:32:14.545Z,98.70
2019-03-16T11:34:53.956Z,98.90
2019-03-16T11:37:35.540Z,98.70
2019-03-16T11:40:15.330Z,98.40
2019-03-16T11:42:59.735Z,98.50
2019-03-16T11:45:40.279Z,98.50
2019-03-16T11:48:19.583Z,98.70
2019-03-16T11:51:02.699Z,98.80
2019-03-16T11:53:40.607Z,98.80
2019-03-16T11:56:21.804Z,98.90
2019-03-16T11:59:00.008Z,99.20
2019-03-16T12:01:39.310Z,99.20
2019-03-16T12:04:25.600Z,99.20
2019-03-16T12:07:05.248Z,99.40
2019-03-16T12:09:46.554Z,99.40
2019-03-16T12:12:32.012Z,99.40
2019-03-16T12:15:09.812Z,99.50
2019-03-16T12:17:53.647Z,99.20
2019-03-16T12:20:32.414Z,99.10
2019-03-16T12:23:12.836Z,99.10
2019-03-16T12:25:51.679Z,99.10
2019-03-16T12:28:29.789Z,99.10
2019-03-16T12:31:09.125Z,98.80
2019-03-16T12:33:49.668Z,99.10
2019-03-16T12:36:28.029Z,98.60
2019-03-16T12:39:05.693Z,98.60
2019-03-16T12:41:44.215Z,98.80
2019-03-16T12:44:21.750Z,98.80
2019-03-16T12:46:59.969Z,98.90
2019-03-16T12:49:37.461Z,98.70
2019-03-16T12:52:16.485Z,98.80
2019-03-16T12:54:56.185Z,99.10
2019-03-16T12:57:34.838Z,98.90
2019-03-16T13:00:14.260Z,98.90
2019-03-16T13:02:53.696Z,99.10
2019-03-16T13:05:32.093Z,99.10
2019-03-16T13:08:10.474Z,99.20
2019-03-16T13:10:48.340Z,99.20
2019-03-16T13:13:26.724Z,99.20
2019-03-16T13:16:04.068Z,99.30
2019-03-16T13:18:44.236Z,99.40
2019-03-16T13:21:23.496Z,99.20
2019-03-16T13:24:08.301Z,99.00
2019-03-16T13:26:52.663Z,98.90
2019-03-16T13:29:31.710Z,98.90
2019-03-16T13:32:12.242Z,99.10
2019-03-16T13:34:51.709Z,99.00
2019-03-16T13:37:29.433Z,99.00
2019-03-16T13:40:07.635Z,99.00
2019-03-16T13:42:46.813Z,99.10
2019-03-16T13:45:25.537Z,98.90
2019-03-16T13:48:03.560Z,99.10
2019-03-16T13:50:42.698Z,99.20
2019-03-16T13:53:24.592Z,99.40
2019-03-16T13:56:04.603Z,99.30
2019-03-16T13:58:44.609Z,99.20
2019-03-16T14:01:22.563Z,99.20
2019-03-16T14:04:03.233Z,99.40
2019-03-16T14:06:44.534Z,99.40
2019-03-16T14:09:23.604Z,99.40
2019-03-16T14:12:06.545Z,99.70
2019-03-16T14:14:45.346Z,99.50
2019-03-16T14:17:25.764Z,99.70
2019-03-16T14:20:06.582Z,99.80
2019-03-16T14:22:44.960Z,99.80
2019-03-16T14:25:22.743Z,99.80
2019-03-16T14:28:03.498Z,99.80
2019-03-16T14:30:45.028Z,99.10
2019-03-16T14:33:26.492Z,98.50
2019-03-16T14:36:06.209Z,98.60
2019-03-16T14:38:46.618Z,99.50
2019-03-16T14:41:24.429Z,99.40
2019-03-16T14:44:03.035Z,99.80
2019-03-16T14:46:41.183Z,99.70
2019-03-16T14:49:19.475Z,99.20
2019-03-16T14:51:59.429Z,99.10
2019-03-16T14:54:37.740Z,98.50
2019-03-16T14:57:17.886Z,98.70
2019-03-16T15:00:03.004Z,98.30
2019-03-16T15:02:46.487Z,98.50
2019-03-16T15:05:28.456Z,99.00
2019-03-16T15:08:06.864Z,99.50
2019-03-16T15:10:47.014Z,99.90
2019-03-16T15:13:26.905Z,99.70
2019-03-16T15:16:04.896Z,99.20
2019-03-16T15:18:45.035Z,99.10
2019-03-16T15:21:23.981Z,99.10
2019-03-16T15:24:02.146Z,98.80
2019-03-16T15:26:42.403Z,98.30
2019-03-16T15:29:23.042Z,98.20
2019-03-16T15:32:02.723Z,98.80
2019-03-16T15:34:43.706Z,99.00
2019-03-16T15:37:31.614Z,99.20
2019-03-16T15:40:13.432Z,98.90
2019-03-16T15:43:02.325Z,98.50
2019-03-16T15:48:48.451Z,99.40
2019-03-16T15:51:28.556Z,99.00
2019-03-16T15:54:09.161Z,99.10
2019-03-16T15:56:53.919Z,98.70
2019-03-16T15:59:36.580Z,98.60
2019-03-16T16:02:15.752Z,98.50
2019-03-16T16:04:55.322Z,98.50
2019-03-16T16:07:35.857Z,98.50
2019-03-16T16:10:16.145Z,98.20
2019-03-16T16:12:53.391Z,98.10
2019-03-16T16:15:32.680Z,98.30
2019-03-16T16:18:15.245Z,98.30
2019-03-16T16:20:56.940Z,98.20
2019-03-16T16:23:56.133Z,97.80
2019-03-16T16:26:39.845Z,98.10
2019-03-16T16:29:53.693Z,98.20
2019-03-16T16:32:38.345Z,98.30
2019-03-16T16:35:19.307Z,98.70
2019-03-16T16:45:46.785Z,99.30
2019-03-16T16:48:31.288Z,99.80
2019-03-16T16:55:26.891Z,99.90
2019-03-16T17:03:00.251Z,99.90
2019-03-16T17:22:52.145Z,99.90
2019-03-16T17:26:23.292Z,99.90
2019-03-16T17:33:20.782Z,99.90
2019-03-16T17:36:10.395Z,99.90
2019-03-16T17:38:49.730Z,99.90
2019-03-16T17:41:31.283Z,99.90
2019-03-16T17:44:10.502Z,99.90
2019-03-16T17:46:53.063Z,99.90
2019-03-16T17:49:33.361Z,99.90
2019-03-16T17:52:14.036Z,99.90
2019-03-16T17:54:52.781Z,99.90
2019-03-16T17:57:31.894Z,99.90
2019-03-16T18:00:12.661Z,99.90
2019-03-16T18:02:55.327Z,99.90
2019-03-16T18:05:39.265Z,99.90
2019-03-16T18:08:22.440Z,99.90
2019-03-16T18:11:00.637Z,99.90
2019-03-16T18:14:01.115Z,99.90
2019-03-16T18:16:42.670Z,99.90
2019-03-16T18:23:08.552Z,99.90
2019-03-16T18:25:55.095Z,99.90
2019-03-16T18:28:35.774Z,99.90
2019-03-16T18:31:21.167Z,99.90
2019-03-16T18:33:58.872Z,99.90
2019-03-16T18:36:37.038Z,99.90
2019-03-16T18:39:15.760Z,99.90
2019-03-16T18:41:59.169Z,99.90
2019-03-16T18:44:41.258Z,99.90
2019-03-16T18:47:20.384Z,99.90
2019-03-16T18:49:57.968Z,99.90
2019-03-16T18:52:42.486Z,99.90
2019-03-16T18:55:27.635Z,99.90
2019-03-16T18:58:12.899Z,99.90
2019-03-16T19:00:51.754Z,99.90
2019-03-16T19:03:32.113Z,99.90
2019-03-16T19:06:10.564Z,99.90
2019-03-16T19:08:50.300Z,99.90
2019-03-16T19:11:30.419Z,99.90
2019-03-16T19:14:11.859Z,99.90
2019-03-16T19:16:53.832Z,99.90
2019-03-16T19:19:31.779Z,99.90
2019-03-16T19:22:11.603Z,99.90
2019-03-16T19:24:50.103Z,99.90
2019-03-16T19:27:34.812Z,99.90
2019-03-16T19:30:27.525Z,99.90
2019-03-16T19:33:17.147Z,99.90
2019-03-16T19:35:58.387Z,99.90
2019-03-16T19:38:43.825Z,99.90
2019-03-16T19:41:28.394Z,99.90
2019-03-16T19:44:15.581Z,99.90
2019-03-16T19:47:03.820Z,99.90
2019-03-16T19:49:46.738Z,99.90
2019-03-16T19:52:29.474Z,99.90
2019-03-16T19:55:07.823Z,99.90
2019-03-16T19:57:53.172Z,99.90
2019-03-16T20:00:31.339Z,99.90
2019-03-16T20:03:09.253Z,99.90
2019-03-16T20:05:50.649Z,99.90
2019-03-16T20:08:33.014Z,99.90
2019-03-16T20:11:12.555Z,99.90
2019-03-16T20:13:52.478Z,99.90
2019-03-16T20:16:37.403Z,99.90
2019-03-16T20:19:24.214Z,99.90
2019-03-16T20:22:05.632Z,99.90
2019-03-16T20:24:43.538Z,99.90
2019-03-16T20:27:22.380Z,99.90
2019-03-16T20:30:01.484Z,99.90
2019-03-16T20:32:41.819Z,99.90
2019-03-16T20:35:20.319Z,99.90
2019-03-16T20:37:57.858Z,99.90
2019-03-16T20:40:36.765Z,99.90
2019-03-16T20:43:15.063Z,99.90
2019-03-16T20:45:53.259Z,99.90
2019-03-16T20:48:32.223Z,99.90
2019-03-16T20:51:12.957Z,99.90
2019-03-16T20:53:51.054Z,99.90
2019-03-16T20:56:28.856Z,99.90
2019-03-16T20:59:07.123Z,99.90
2019-03-16T21:01:45.992Z,99.90
2019-03-16T21:04:25.167Z,99.90
2019-03-16T21:07:03.504Z,99.90
2019-03-16T21:09:41.056Z,99.90
2019-03-16T21:12:19.851Z,99.90
2019-03-16T21:14:57.889Z,99.90
2019-03-16T21:17:36.076Z,99.90
2019-03-16T21:20:16.944Z,99.90
2019-03-16T21:22:55.389Z,99.80
2019-03-16T21:25:32.996Z,99.70
2019-03-16T21:28:11.420Z,99.90
2019-03-16T21:30:48.971Z,99.90
2019-03-16T21:33:29.736Z,99.90
2019-03-16T21:36:07.059Z,99.90
2019-03-16T21:38:45.123Z,99.90
2019-03-16T21:41:22.814Z,99.90
2019-03-16T21:44:00.885Z,99.90
2019-03-16T21:46:39.459Z,99.90
2019-03-16T21:49:17.542Z,99.90
2019-03-16T21:51:56.814Z,99.90
2019-03-16T21:54:38.324Z,99.90
2019-03-16T21:57:17.415Z,99.90
2019-03-16T21:59:55.892Z,99.90
2019-03-16T22:02:33.255Z,99.90
2019-03-16T22:05:12.974Z,99.90
2019-03-16T22:07:50.846Z,99.90
2019-03-16T22:10:29.075Z,99.90
2019-03-16T22:13:06.827Z,99.90
2019-03-16T22:15:46.636Z,99.90
2019-03-16T22:18:27.830Z,99.90
2019-03-16T22:21:06.747Z,99.90
2019-03-16T22:23:46.542Z,99.90
2019-03-16T22:26:25.951Z,99.90
2019-03-16T22:29:03.441Z,99.90
2019-03-16T22:31:41.209Z,99.90
2019-03-16T22:34:19.462Z,99.90
2019-03-16T22:36:57.802Z,99.90
2019-03-16T22:39:35.894Z,99.90
2019-03-16T22:42:14.365Z,99.90
2019-03-16T22:44:54.139Z,99.90
2019-03-16T22:47:33.184Z,99.90
2019-03-16T22:50:11.266Z,99.90
2019-03-16T22:52:49.385Z,99.90
2019-03-16T22:55:28.389Z,99.90
2019-03-16T22:58:10.462Z,99.90
2019-03-16T23:00:50.553Z,99.90
2019-03-16T23:03:28.960Z,99.90
2019-03-16T23:06:06.776Z,99.90
2019-03-16T23:08:45.859Z,99.90
2019-03-16T23:11:24.246Z,99.90
2019-03-16T23:14:02.778Z,99.90
2019-03-16T23:16:41.874Z,99.90
2019-03-16T23:19:19.897Z,99.90
2019-03-16T23:22:01.774Z,99.90
2019-03-16T23:24:41.439Z,95.40
2019-03-16T23:27:20.865Z,96.20
2019-03-16T23:30:00.831Z,99.90
2019-03-16T23:32:39.153Z,99.90
2019-03-16T23:35:17.612Z,99.90
2019-03-16T23:37:55.913Z,99.90
2019-03-16T23:40:35.016Z,99.90
2019-03-16T23:43:13.100Z,99.90
2019-03-16T23:45:51.318Z,99.90
2019-03-16T23:48:30.312Z,99.90
2019-03-16T23:51:08.659Z,99.90
2019-03-16T23:53:47.465Z,99.90
2019-03-16T23:56:25.231Z,99.90
2019-03-16T23:59:04.303Z,99.90
